sensor_id;sensor_type;location;lat;lon;timestamp;P1;durP1;ratioP1;P2;durP2;ratioP2
55879;SDS011;41802;51.564;-1.838;2022-07-03T00:01:37;12.27;;;2.50;;
55879;SDS011;41802;51.564;-1.838;2022-07-03T00:04:03;8.60;;;2.95;;
55879;SDS011;41802;51.564;-1.838;2022-07-03T00:06:30;7.63;;;2.55;;
55879;SDS011;41802;51.564;-1.838;2022-07-03T00:08:57;6.45;;;3.03;;
55879;SDS011;41802;51.564;-1.838;2022-07-03T00:11:24;5.30;;;2.67;;
55879;SDS011;41802;51.564;-1.838;2022-07-03T00:13:52;11.10;;;3.40;;
55879;SDS011;41802;51.564;-1.838;2022-07-03T00:16:18;12.82;;;3.60;;
55879;SDS011;41802;51.564;-1.838;2022-07-03T00:18:45;12.98;;;4.45;;
55879;SDS011;41802;51.564;-1.838;2022-07-03T00:21:12;8.27;;;3.28;;
55879;SDS011;41802;51.564;-1.838;2022-07-03T00:23:42;6.35;;;1.88;;
55879;SDS011;41802;51.564;-1.838;2022-07-03T00:26:10;8.05;;;2.40;;
55879;SDS011;41802;51.564;-1.838;2022-07-03T00:28:37;8.43;;;2.15;;
55879;SDS011;41802;51.564;-1.838;2022-07-03T00:31:05;10.25;;;2.63;;
55879;SDS011;41802;51.564;-1.838;2022-07-03T00:33:33;6.30;;;1.88;;
55879;SDS011;41802;51.564;-1.838;2022-07-03T00:36:00;7.75;;;2.17;;
55879;SDS011;41802;51.564;-1.838;2022-07-03T00:38:28;9.77;;;2.13;;
55879;SDS011;41802;51.564;-1.838;2022-07-03T00:40:54;3.65;;;2.00;;
55879;SDS011;41802;51.564;-1.838;2022-07-03T00:43:21;5.18;;;2.33;;
55879;SDS011;41802;51.564;-1.838;2022-07-03T00:45:48;9.73;;;2.55;;
55879;SDS011;41802;51.564;-1.838;2022-07-03T00:48:17;7.45;;;2.53;;
55879;SDS011;41802;51.564;-1.838;2022-07-03T00:50:44;4.38;;;1.95;;
55879;SDS011;41802;51.564;-1.838;2022-07-03T00:53:11;7.45;;;2.38;;
55879;SDS011;41802;51.564;-1.838;2022-07-03T00:55:39;7.45;;;2.40;;
55879;SDS011;41802;51.564;-1.838;2022-07-03T00:58:07;8.77;;;2.20;;
55879;SDS011;41802;51.564;-1.838;2022-07-03T01:00:33;8.35;;;2.97;;
55879;SDS011;41802;51.564;-1.838;2022-07-03T01:03:02;7.55;;;2.30;;
55879;SDS011;41802;51.564;-1.838;2022-07-03T01:05:34;6.30;;;2.50;;
55879;SDS011;41802;51.564;-1.838;2022-07-03T01:08:04;7.18;;;2.22;;
55879;SDS011;41802;51.564;-1.838;2022-07-03T01:10:36;10.85;;;2.80;;
55879;SDS011;41802;51.564;-1.838;2022-07-03T01:13:06;11.20;;;2.53;;
55879;SDS011;41802;51.564;-1.838;2022-07-03T01:15:37;7.75;;;2.10;;
55879;SDS011;41802;51.564;-1.838;2022-07-03T01:18:20;9.23;;;2.70;;
55879;SDS011;41802;51.564;-1.838;2022-07-03T01:20:52;6.13;;;2.55;;
55879;SDS011;41802;51.564;-1.838;2022-07-03T01:23:23;10.95;;;2.53;;
55879;SDS011;41802;51.564;-1.838;2022-07-03T01:25:52;6.22;;;2.17;;
55879;SDS011;41802;51.564;-1.838;2022-07-03T01:28:20;6.40;;;2.22;;
55879;SDS011;41802;51.564;-1.838;2022-07-03T01:30:49;5.50;;;2.10;;
55879;SDS011;41802;51.564;-1.838;2022-07-03T01:33:18;7.78;;;2.00;;
55879;SDS011;41802;51.564;-1.838;2022-07-03T01:35:47;4.90;;;2.30;;
55879;SDS011;41802;51.564;-1.838;2022-07-03T01:38:18;8.63;;;2.65;;
55879;SDS011;41802;51.564;-1.838;2022-07-03T01:40:47;5.72;;;2.20;;
55879;SDS011;41802;51.564;-1.838;2022-07-03T01:43:16;8.98;;;2.33;;
55879;SDS011;41802;51.564;-1.838;2022-07-03T01:48:11;6.78;;;2.60;;
55879;SDS011;41802;51.564;-1.838;2022-07-03T01:50:38;6.28;;;3.17;;
55879;SDS011;41802;51.564;-1.838;2022-07-03T01:53:06;5.80;;;2.33;;
55879;SDS011;41802;51.564;-1.838;2022-07-03T01:55:33;6.95;;;2.60;;
55879;SDS011;41802;51.564;-1.838;2022-07-03T01:58:00;7.82;;;2.92;;
55879;SDS011;41802;51.564;-1.838;2022-07-03T02:00:28;6.78;;;2.22;;
55879;SDS011;41802;51.564;-1.838;2022-07-03T02:02:57;5.70;;;2.42;;
55879;SDS011;41802;51.564;-1.838;2022-07-03T02:05:29;9.23;;;2.72;;
55879;SDS011;41802;51.564;-1.838;2022-07-03T02:07:58;5.38;;;2.40;;
55879;SDS011;41802;51.564;-1.838;2022-07-03T02:10:30;5.20;;;2.67;;
55879;SDS011;41802;51.564;-1.838;2022-07-03T02:12:59;12.45;;;2.75;;
55879;SDS011;41802;51.564;-1.838;2022-07-03T02:15:30;8.63;;;2.65;;
55879;SDS011;41802;51.564;-1.838;2022-07-03T02:17:57;9.60;;;2.58;;
55879;SDS011;41802;51.564;-1.838;2022-07-03T02:20:24;4.68;;;2.17;;
55879;SDS011;41802;51.564;-1.838;2022-07-03T02:22:52;6.35;;;2.38;;
55879;SDS011;41802;51.564;-1.838;2022-07-03T02:25:23;4.75;;;2.95;;
55879;SDS011;41802;51.564;-1.838;2022-07-03T02:27:50;8.40;;;2.38;;
55879;SDS011;41802;51.564;-1.838;2022-07-03T02:30:17;7.18;;;2.78;;
55879;SDS011;41802;51.564;-1.838;2022-07-03T02:32:47;7.82;;;2.42;;
55879;SDS011;41802;51.564;-1.838;2022-07-03T02:35:17;8.30;;;2.35;;
55879;SDS011;41802;51.564;-1.838;2022-07-03T02:37:44;9.25;;;2.70;;
55879;SDS011;41802;51.564;-1.838;2022-07-03T02:40:15;8.82;;;2.47;;
55879;SDS011;41802;51.564;-1.838;2022-07-03T02:42:45;5.97;;;2.33;;
55879;SDS011;41802;51.564;-1.838;2022-07-03T02:45:13;6.72;;;2.78;;
55879;SDS011;41802;51.564;-1.838;2022-07-03T02:47:43;3.95;;;2.45;;
55879;SDS011;41802;51.564;-1.838;2022-07-03T02:50:15;6.07;;;2.50;;
55879;SDS011;41802;51.564;-1.838;2022-07-03T02:52:44;4.70;;;2.20;;
55879;SDS011;41802;51.564;-1.838;2022-07-03T02:55:20;5.15;;;2.65;;
55879;SDS011;41802;51.564;-1.838;2022-07-03T02:58:05;5.80;;;2.57;;
55879;SDS011;41802;51.564;-1.838;2022-07-03T03:00:37;5.68;;;2.83;;
55879;SDS011;41802;51.564;-1.838;2022-07-03T03:03:05;10.98;;;3.15;;
55879;SDS011;41802;51.564;-1.838;2022-07-03T03:05:35;6.50;;;3.70;;
55879;SDS011;41802;51.564;-1.838;2022-07-03T03:08:11;8.20;;;2.75;;
55879;SDS011;41802;51.564;-1.838;2022-07-03T03:10:38;5.95;;;2.60;;
55879;SDS011;41802;51.564;-1.838;2022-07-03T03:13:06;7.45;;;2.50;;
55879;SDS011;41802;51.564;-1.838;2022-07-03T03:15:33;13.75;;;3.53;;
55879;SDS011;41802;51.564;-1.838;2022-07-03T03:18:00;9.65;;;2.95;;
55879;SDS011;41802;51.564;-1.838;2022-07-03T03:20:30;4.53;;;2.47;;
55879;SDS011;41802;51.564;-1.838;2022-07-03T03:23:04;7.85;;;2.60;;
55879;SDS011;41802;51.564;-1.838;2022-07-03T03:25:34;6.35;;;2.92;;
55879;SDS011;41802;51.564;-1.838;2022-07-03T03:28:01;12.90;;;2.85;;
55879;SDS011;41802;51.564;-1.838;2022-07-03T03:30:27;7.38;;;3.15;;
55879;SDS011;41802;51.564;-1.838;2022-07-03T03:32:54;7.70;;;2.83;;
55879;SDS011;41802;51.564;-1.838;2022-07-03T03:35:21;8.55;;;2.75;;
55879;SDS011;41802;51.564;-1.838;2022-07-03T03:37:47;9.75;;;3.13;;
55879;SDS011;41802;51.564;-1.838;2022-07-03T03:40:16;8.68;;;3.15;;
55879;SDS011;41802;51.564;-1.838;2022-07-03T03:42:43;10.90;;;3.22;;
55879;SDS011;41802;51.564;-1.838;2022-07-03T03:45:09;7.55;;;2.63;;
55879;SDS011;41802;51.564;-1.838;2022-07-03T03:47:36;11.02;;;3.70;;
55879;SDS011;41802;51.564;-1.838;2022-07-03T03:50:03;6.55;;;2.83;;
55879;SDS011;41802;51.564;-1.838;2022-07-03T03:52:30;12.00;;;3.30;;
55879;SDS011;41802;51.564;-1.838;2022-07-03T03:54:56;6.28;;;2.85;;
55879;SDS011;41802;51.564;-1.838;2022-07-03T03:57:25;12.25;;;3.50;;
55879;SDS011;41802;51.564;-1.838;2022-07-03T03:59:51;7.88;;;3.10;;
55879;SDS011;41802;51.564;-1.838;2022-07-03T04:02:18;6.78;;;3.13;;
55879;SDS011;41802;51.564;-1.838;2022-07-03T04:04:45;6.22;;;3.33;;
55879;SDS011;41802;51.564;-1.838;2022-07-03T04:07:11;13.70;;;3.20;;
55879;SDS011;41802;51.564;-1.838;2022-07-03T04:09:38;9.90;;;3.05;;
55879;SDS011;41802;51.564;-1.838;2022-07-03T04:12:04;4.40;;;2.90;;
55879;SDS011;41802;51.564;-1.838;2022-07-03T04:14:32;7.13;;;3.75;;
55879;SDS011;41802;51.564;-1.838;2022-07-03T04:16:59;8.02;;;2.40;;
55879;SDS011;41802;51.564;-1.838;2022-07-03T04:19:25;8.95;;;3.00;;
55879;SDS011;41802;51.564;-1.838;2022-07-03T04:21:52;11.93;;;3.65;;
55879;SDS011;41802;51.564;-1.838;2022-07-03T04:24:18;9.20;;;3.63;;
55879;SDS011;41802;51.564;-1.838;2022-07-03T04:26:45;9.98;;;3.25;;
55879;SDS011;41802;51.564;-1.838;2022-07-03T04:29:12;7.18;;;3.50;;
55879;SDS011;41802;51.564;-1.838;2022-07-03T04:31:39;10.95;;;3.50;;
55879;SDS011;41802;51.564;-1.838;2022-07-03T04:34:06;8.55;;;2.65;;
55879;SDS011;41802;51.564;-1.838;2022-07-03T04:36:33;10.40;;;2.90;;
55879;SDS011;41802;51.564;-1.838;2022-07-03T04:38:59;7.07;;;2.42;;
55879;SDS011;41802;51.564;-1.838;2022-07-03T04:41:26;5.53;;;2.85;;
55879;SDS011;41802;51.564;-1.838;2022-07-03T04:43:52;6.55;;;3.10;;
55879;SDS011;41802;51.564;-1.838;2022-07-03T04:46:19;7.95;;;2.55;;
55879;SDS011;41802;51.564;-1.838;2022-07-03T04:48:48;5.82;;;2.75;;
55879;SDS011;41802;51.564;-1.838;2022-07-03T04:51:14;5.07;;;2.67;;
55879;SDS011;41802;51.564;-1.838;2022-07-03T04:53:41;10.60;;;3.35;;
55879;SDS011;41802;51.564;-1.838;2022-07-03T04:56:07;5.30;;;2.55;;
55879;SDS011;41802;51.564;-1.838;2022-07-03T04:58:34;6.00;;;2.88;;
55879;SDS011;41802;51.564;-1.838;2022-07-03T05:01:00;6.75;;;3.28;;
55879;SDS011;41802;51.564;-1.838;2022-07-03T05:03:27;12.75;;;3.47;;
55879;SDS011;41802;51.564;-1.838;2022-07-03T05:05:55;7.65;;;3.08;;
55879;SDS011;41802;51.564;-1.838;2022-07-03T05:08:21;7.18;;;2.90;;
55879;SDS011;41802;51.564;-1.838;2022-07-03T05:10:48;12.05;;;2.83;;
55879;SDS011;41802;51.564;-1.838;2022-07-03T05:13:15;11.57;;;3.08;;
55879;SDS011;41802;51.564;-1.838;2022-07-03T05:15:42;8.63;;;2.97;;
55879;SDS011;41802;51.564;-1.838;2022-07-03T05:18:08;9.88;;;3.15;;
55879;SDS011;41802;51.564;-1.838;2022-07-03T05:20:35;12.95;;;3.58;;
55879;SDS011;41802;51.564;-1.838;2022-07-03T05:23:02;6.82;;;2.10;;
55879;SDS011;41802;51.564;-1.838;2022-07-03T05:25:30;7.63;;;3.30;;
55879;SDS011;41802;51.564;-1.838;2022-07-03T05:27:57;7.93;;;3.28;;
55879;SDS011;41802;51.564;-1.838;2022-07-03T05:30:24;8.23;;;2.92;;
55879;SDS011;41802;51.564;-1.838;2022-07-03T05:32:51;8.20;;;3.25;;
55879;SDS011;41802;51.564;-1.838;2022-07-03T05:35:18;6.38;;;2.75;;
55879;SDS011;41802;51.564;-1.838;2022-07-03T05:40:15;6.82;;;2.63;;
55879;SDS011;41802;51.564;-1.838;2022-07-03T05:42:42;13.63;;;3.15;;
55879;SDS011;41802;51.564;-1.838;2022-07-03T05:45:09;9.10;;;3.33;;
55879;SDS011;41802;51.564;-1.838;2022-07-03T05:47:36;6.60;;;2.55;;
55879;SDS011;41802;51.564;-1.838;2022-07-03T05:50:02;8.07;;;2.40;;
55879;SDS011;41802;51.564;-1.838;2022-07-03T05:52:29;7.03;;;3.28;;
55879;SDS011;41802;51.564;-1.838;2022-07-03T05:54:56;6.47;;;2.97;;
55879;SDS011;41802;51.564;-1.838;2022-07-03T05:57:24;5.75;;;3.08;;
55879;SDS011;41802;51.564;-1.838;2022-07-03T05:59:51;13.38;;;3.40;;
55879;SDS011;41802;51.564;-1.838;2022-07-03T06:02:17;9.57;;;3.35;;
55879;SDS011;41802;51.564;-1.838;2022-07-03T06:04:44;4.65;;;2.58;;
55879;SDS011;41802;51.564;-1.838;2022-07-03T06:07:10;7.60;;;3.35;;
55879;SDS011;41802;51.564;-1.838;2022-07-03T06:09:37;8.18;;;2.50;;
55879;SDS011;41802;51.564;-1.838;2022-07-03T06:12:04;9.95;;;2.67;;
55879;SDS011;41802;51.564;-1.838;2022-07-03T06:14:31;9.07;;;2.75;;
55879;SDS011;41802;51.564;-1.838;2022-07-03T06:16:58;7.18;;;3.15;;
55879;SDS011;41802;51.564;-1.838;2022-07-03T06:19:24;7.13;;;2.70;;
55879;SDS011;41802;51.564;-1.838;2022-07-03T06:21:51;9.73;;;2.80;;
55879;SDS011;41802;51.564;-1.838;2022-07-03T06:24:17;5.65;;;3.30;;
55879;SDS011;41802;51.564;-1.838;2022-07-03T06:26:44;7.97;;;2.65;;
55879;SDS011;41802;51.564;-1.838;2022-07-03T06:29:10;7.40;;;2.63;;
55879;SDS011;41802;51.564;-1.838;2022-07-03T06:31:38;5.22;;;2.60;;
55879;SDS011;41802;51.564;-1.838;2022-07-03T06:34:05;7.82;;;2.45;;
55879;SDS011;41802;51.564;-1.838;2022-07-03T06:36:31;5.35;;;2.85;;
55879;SDS011;41802;51.564;-1.838;2022-07-03T06:38:57;12.25;;;3.60;;
55879;SDS011;41802;51.564;-1.838;2022-07-03T06:41:24;7.13;;;3.00;;
55879;SDS011;41802;51.564;-1.838;2022-07-03T06:43:50;11.23;;;3.30;;
55879;SDS011;41802;51.564;-1.838;2022-07-03T06:46:18;10.02;;;2.80;;
55879;SDS011;41802;51.564;-1.838;2022-07-03T06:48:46;16.00;;;3.83;;
55879;SDS011;41802;51.564;-1.838;2022-07-03T06:51:13;10.82;;;4.22;;
55879;SDS011;41802;51.564;-1.838;2022-07-03T06:53:39;6.47;;;3.03;;
55879;SDS011;41802;51.564;-1.838;2022-07-03T06:56:06;5.63;;;3.60;;
55879;SDS011;41802;51.564;-1.838;2022-07-03T06:58:32;7.60;;;3.72;;
55879;SDS011;41802;51.564;-1.838;2022-07-03T07:00:59;6.88;;;4.25;;
55879;SDS011;41802;51.564;-1.838;2022-07-03T07:03:25;8.68;;;3.47;;
55879;SDS011;41802;51.564;-1.838;2022-07-03T07:05:53;8.18;;;3.58;;
55879;SDS011;41802;51.564;-1.838;2022-07-03T07:08:19;8.52;;;3.80;;
55879;SDS011;41802;51.564;-1.838;2022-07-03T07:10:46;5.93;;;3.53;;
55879;SDS011;41802;51.564;-1.838;2022-07-03T07:13:12;12.80;;;4.78;;
55879;SDS011;41802;51.564;-1.838;2022-07-03T07:15:39;8.85;;;4.80;;
55879;SDS011;41802;51.564;-1.838;2022-07-03T07:18:05;5.68;;;4.05;;
55879;SDS011;41802;51.564;-1.838;2022-07-03T07:20:32;6.72;;;4.72;;
55879;SDS011;41802;51.564;-1.838;2022-07-03T07:23:00;9.40;;;4.82;;
55879;SDS011;41802;51.564;-1.838;2022-07-03T07:25:26;8.98;;;4.20;;
55879;SDS011;41802;51.564;-1.838;2022-07-03T07:27:53;11.93;;;4.03;;
55879;SDS011;41802;51.564;-1.838;2022-07-03T07:30:19;15.15;;;4.93;;
55879;SDS011;41802;51.564;-1.838;2022-07-03T07:32:46;10.23;;;4.40;;
55879;SDS011;41802;51.564;-1.838;2022-07-03T07:35:12;7.97;;;4.68;;
55879;SDS011;41802;51.564;-1.838;2022-07-03T07:37:39;13.13;;;4.68;;
55879;SDS011;41802;51.564;-1.838;2022-07-03T07:40:08;8.70;;;4.20;;
55879;SDS011;41802;51.564;-1.838;2022-07-03T07:42:34;13.30;;;4.20;;
55879;SDS011;41802;51.564;-1.838;2022-07-03T07:45:01;10.40;;;3.90;;
55879;SDS011;41802;51.564;-1.838;2022-07-03T07:47:27;9.18;;;4.20;;
55879;SDS011;41802;51.564;-1.838;2022-07-03T07:49:53;7.68;;;3.40;;
55879;SDS011;41802;51.564;-1.838;2022-07-03T07:52:20;6.07;;;4.25;;
55879;SDS011;41802;51.564;-1.838;2022-07-03T07:54:49;6.13;;;3.40;;
55879;SDS011;41802;51.564;-1.838;2022-07-03T07:57:17;13.55;;;3.90;;
55879;SDS011;41802;51.564;-1.838;2022-07-03T07:59:45;6.50;;;3.45;;
55879;SDS011;41802;51.564;-1.838;2022-07-03T08:02:11;11.48;;;4.82;;
55879;SDS011;41802;51.564;-1.838;2022-07-03T08:04:56;8.93;;;4.40;;
55879;SDS011;41802;51.564;-1.838;2022-07-03T08:07:40;7.78;;;3.83;;
55879;SDS011;41802;51.564;-1.838;2022-07-03T08:10:06;10.65;;;3.85;;
55879;SDS011;41802;51.564;-1.838;2022-07-03T08:12:34;7.18;;;3.55;;
55879;SDS011;41802;51.564;-1.838;2022-07-03T08:15:01;5.20;;;3.28;;
55879;SDS011;41802;51.564;-1.838;2022-07-03T08:17:27;5.93;;;3.42;;
55879;SDS011;41802;51.564;-1.838;2022-07-03T08:19:54;5.32;;;3.33;;
55879;SDS011;41802;51.564;-1.838;2022-07-03T08:22:20;4.00;;;3.03;;
55879;SDS011;41802;51.564;-1.838;2022-07-03T08:24:47;7.13;;;3.15;;
55879;SDS011;41802;51.564;-1.838;2022-07-03T08:27:14;9.52;;;2.78;;
55879;SDS011;41802;51.564;-1.838;2022-07-03T08:29:42;5.05;;;2.50;;
55879;SDS011;41802;51.564;-1.838;2022-07-03T08:32:08;7.28;;;2.13;;
55879;SDS011;41802;51.564;-1.838;2022-07-03T08:34:35;3.90;;;2.22;;
55879;SDS011;41802;51.564;-1.838;2022-07-03T08:37:02;6.70;;;2.25;;
55879;SDS011;41802;51.564;-1.838;2022-07-03T08:39:28;4.10;;;3.00;;
55879;SDS011;41802;51.564;-1.838;2022-07-03T08:41:55;6.95;;;2.38;;
55879;SDS011;41802;51.564;-1.838;2022-07-03T08:44:22;5.53;;;1.80;;
55879;SDS011;41802;51.564;-1.838;2022-07-03T08:46:53;6.53;;;1.90;;
55879;SDS011;41802;51.564;-1.838;2022-07-03T08:49:21;7.03;;;2.60;;
55879;SDS011;41802;51.564;-1.838;2022-07-03T08:51:48;6.97;;;2.45;;
55879;SDS011;41802;51.564;-1.838;2022-07-03T08:54:15;4.07;;;1.85;;
55879;SDS011;41802;51.564;-1.838;2022-07-03T08:56:41;5.70;;;2.10;;
55879;SDS011;41802;51.564;-1.838;2022-07-03T08:59:08;4.45;;;2.00;;
55879;SDS011;41802;51.564;-1.838;2022-07-03T09:01:35;4.15;;;1.90;;
55879;SDS011;41802;51.564;-1.838;2022-07-03T09:04:09;4.10;;;1.70;;
55879;SDS011;41802;51.564;-1.838;2022-07-03T09:06:38;5.43;;;1.73;;
55879;SDS011;41802;51.564;-1.838;2022-07-03T09:09:04;4.80;;;1.65;;
55879;SDS011;41802;51.564;-1.838;2022-07-03T09:11:32;4.68;;;1.40;;
55879;SDS011;41802;51.564;-1.838;2022-07-03T09:13:59;3.40;;;1.20;;
55879;SDS011;41802;51.564;-1.838;2022-07-03T09:16:27;6.35;;;2.05;;
55879;SDS011;41802;51.564;-1.838;2022-07-03T09:18:54;4.43;;;1.50;;
55879;SDS011;41802;51.564;-1.838;2022-07-03T09:21:22;4.75;;;1.98;;
55879;SDS011;41802;51.564;-1.838;2022-07-03T09:23:49;4.55;;;2.13;;
55879;SDS011;41802;51.564;-1.838;2022-07-03T09:26:16;3.22;;;1.92;;
55879;SDS011;41802;51.564;-1.838;2022-07-03T09:28:44;6.60;;;2.35;;
55879;SDS011;41802;51.564;-1.838;2022-07-03T09:31:12;6.32;;;2.08;;
55879;SDS011;41802;51.564;-1.838;2022-07-03T09:33:55;2.00;;;1.25;;
55879;SDS011;41802;51.564;-1.838;2022-07-03T09:36:36;5.65;;;1.20;;
55879;SDS011;41802;51.564;-1.838;2022-07-03T09:39:10;2.28;;;0.70;;
55879;SDS011;41802;51.564;-1.838;2022-07-03T09:41:43;1.80;;;1.42;;
55879;SDS011;41802;51.564;-1.838;2022-07-03T09:46:42;3.30;;;1.55;;
55879;SDS011;41802;51.564;-1.838;2022-07-03T09:49:09;2.75;;;1.40;;
55879;SDS011;41802;51.564;-1.838;2022-07-03T09:51:37;3.75;;;1.25;;
55879;SDS011;41802;51.564;-1.838;2022-07-03T09:54:04;3.00;;;1.42;;
55879;SDS011;41802;51.564;-1.838;2022-07-03T09:56:33;1.95;;;1.52;;
55879;SDS011;41802;51.564;-1.838;2022-07-03T09:59:09;2.78;;;1.30;;
55879;SDS011;41802;51.564;-1.838;2022-07-03T10:01:36;3.95;;;1.20;;
55879;SDS011;41802;51.564;-1.838;2022-07-03T10:04:10;2.78;;;1.30;;
55879;SDS011;41802;51.564;-1.838;2022-07-03T10:06:51;3.92;;;1.20;;
55879;SDS011;41802;51.564;-1.838;2022-07-03T10:09:18;2.85;;;1.15;;
55879;SDS011;41802;51.564;-1.838;2022-07-03T10:11:45;3.72;;;1.45;;
55879;SDS011;41802;51.564;-1.838;2022-07-03T10:14:13;3.00;;;1.60;;
55879;SDS011;41802;51.564;-1.838;2022-07-03T10:16:39;3.42;;;1.17;;
55879;SDS011;41802;51.564;-1.838;2022-07-03T10:19:06;2.65;;;1.70;;
55879;SDS011;41802;51.564;-1.838;2022-07-03T10:21:33;3.13;;;1.42;;
55879;SDS011;41802;51.564;-1.838;2022-07-03T10:24:03;3.17;;;1.25;;
55879;SDS011;41802;51.564;-1.838;2022-07-03T10:26:31;3.05;;;0.98;;
55879;SDS011;41802;51.564;-1.838;2022-07-03T10:28:58;3.70;;;1.02;;
55879;SDS011;41802;51.564;-1.838;2022-07-03T10:31:25;2.75;;;1.15;;
55879;SDS011;41802;51.564;-1.838;2022-07-03T10:33:52;2.72;;;1.33;;
55879;SDS011;41802;51.564;-1.838;2022-07-03T10:36:19;2.85;;;1.02;;
55879;SDS011;41802;51.564;-1.838;2022-07-03T10:38:46;3.08;;;1.17;;
55879;SDS011;41802;51.564;-1.838;2022-07-03T10:41:16;2.78;;;1.27;;
55879;SDS011;41802;51.564;-1.838;2022-07-03T10:44:03;2.20;;;1.42;;
55879;SDS011;41802;51.564;-1.838;2022-07-03T10:46:47;1.77;;;1.00;;
55879;SDS011;41802;51.564;-1.838;2022-07-03T10:49:14;2.67;;;0.75;;
55879;SDS011;41802;51.564;-1.838;2022-07-03T10:51:53;2.22;;;1.08;;
55879;SDS011;41802;51.564;-1.838;2022-07-03T11:02:26;1.60;;;0.82;;
55879;SDS011;41802;51.564;-1.838;2022-07-03T11:08:02;3.45;;;1.40;;
55879;SDS011;41802;51.564;-1.838;2022-07-03T11:10:31;2.63;;;0.95;;
55879;SDS011;41802;51.564;-1.838;2022-07-03T11:12:58;3.35;;;0.98;;
55879;SDS011;41802;51.564;-1.838;2022-07-03T11:15:25;3.53;;;1.27;;
55879;SDS011;41802;51.564;-1.838;2022-07-03T11:18:10;0.70;;;0.70;;
55879;SDS011;41802;51.564;-1.838;2022-07-03T11:20:46;3.60;;;1.15;;
55879;SDS011;41802;51.564;-1.838;2022-07-03T11:23:23;1.27;;;0.80;;
55879;SDS011;41802;51.564;-1.838;2022-07-03T11:25:53;3.13;;;1.35;;
55879;SDS011;41802;51.564;-1.838;2022-07-03T11:31:15;2.67;;;1.00;;
55879;SDS011;41802;51.564;-1.838;2022-07-03T11:33:44;3.80;;;1.58;;
55879;SDS011;41802;51.564;-1.838;2022-07-03T11:36:11;1.63;;;1.08;;
55879;SDS011;41802;51.564;-1.838;2022-07-03T11:38:37;4.97;;;1.13;;
55879;SDS011;41802;51.564;-1.838;2022-07-03T11:41:06;4.03;;;1.30;;
55879;SDS011;41802;51.564;-1.838;2022-07-03T11:43:33;1.20;;;1.10;;
55879;SDS011;41802;51.564;-1.838;2022-07-03T11:46:02;3.75;;;1.48;;
55879;SDS011;41802;51.564;-1.838;2022-07-03T11:48:29;2.72;;;1.15;;
55879;SDS011;41802;51.564;-1.838;2022-07-03T11:51:01;3.92;;;1.70;;
55879;SDS011;41802;51.564;-1.838;2022-07-03T11:53:30;3.58;;;1.63;;
55879;SDS011;41802;51.564;-1.838;2022-07-03T11:55:57;1.83;;;0.90;;
55879;SDS011;41802;51.564;-1.838;2022-07-03T11:58:25;2.70;;;1.40;;
55879;SDS011;41802;51.564;-1.838;2022-07-03T12:00:52;1.67;;;0.70;;
55879;SDS011;41802;51.564;-1.838;2022-07-03T12:03:23;2.45;;;1.70;;
55879;SDS011;41802;51.564;-1.838;2022-07-03T12:05:51;3.67;;;2.15;;
55879;SDS011;41802;51.564;-1.838;2022-07-03T12:08:22;2.92;;;1.50;;
55879;SDS011;41802;51.564;-1.838;2022-07-03T12:10:49;2.40;;;1.35;;
55879;SDS011;41802;51.564;-1.838;2022-07-03T12:13:19;2.83;;;1.60;;
55879;SDS011;41802;51.564;-1.838;2022-07-03T12:15:46;3.65;;;1.15;;
55879;SDS011;41802;51.564;-1.838;2022-07-03T12:18:13;5.03;;;2.35;;
55879;SDS011;41802;51.564;-1.838;2022-07-03T12:20:39;6.18;;;2.72;;
55879;SDS011;41802;51.564;-1.838;2022-07-03T12:23:06;5.47;;;1.65;;
55879;SDS011;41802;51.564;-1.838;2022-07-03T12:25:36;2.72;;;1.65;;
55879;SDS011;41802;51.564;-1.838;2022-07-03T12:28:04;10.52;;;2.03;;
55879;SDS011;41802;51.564;-1.838;2022-07-03T12:30:30;4.10;;;1.67;;
55879;SDS011;41802;51.564;-1.838;2022-07-03T12:32:57;3.53;;;2.28;;
55879;SDS011;41802;51.564;-1.838;2022-07-03T12:35:24;2.33;;;1.90;;
55879;SDS011;41802;51.564;-1.838;2022-07-03T12:37:51;5.88;;;2.33;;
55879;SDS011;41802;51.564;-1.838;2022-07-03T12:40:18;4.60;;;1.80;;
55879;SDS011;41802;51.564;-1.838;2022-07-03T12:42:46;4.20;;;2.38;;
55879;SDS011;41802;51.564;-1.838;2022-07-03T12:45:14;3.58;;;1.60;;
55879;SDS011;41802;51.564;-1.838;2022-07-03T12:47:41;3.38;;;1.60;;
55879;SDS011;41802;51.564;-1.838;2022-07-03T12:50:08;3.17;;;1.80;;
55879;SDS011;41802;51.564;-1.838;2022-07-03T12:52:49;4.63;;;1.63;;
55879;SDS011;41802;51.564;-1.838;2022-07-03T12:55:21;4.28;;;1.65;;
55879;SDS011;41802;51.564;-1.838;2022-07-03T12:57:50;8.50;;;2.30;;
55879;SDS011;41802;51.564;-1.838;2022-07-03T13:00:41;4.15;;;2.40;;
55879;SDS011;41802;51.564;-1.838;2022-07-03T13:03:08;4.65;;;3.03;;
55879;SDS011;41802;51.564;-1.838;2022-07-03T13:05:51;8.13;;;3.85;;
55879;SDS011;41802;51.564;-1.838;2022-07-03T13:08:18;4.47;;;2.88;;
55879;SDS011;41802;51.564;-1.838;2022-07-03T13:10:44;6.30;;;3.40;;
55879;SDS011;41802;51.564;-1.838;2022-07-03T13:13:21;6.93;;;3.95;;
55879;SDS011;41802;51.564;-1.838;2022-07-03T13:15:48;7.90;;;3.30;;
55879;SDS011;41802;51.564;-1.838;2022-07-03T13:18:14;7.28;;;4.03;;
55879;SDS011;41802;51.564;-1.838;2022-07-03T13:20:41;6.72;;;4.30;;
55879;SDS011;41802;51.564;-1.838;2022-07-03T13:23:07;9.07;;;4.95;;
55879;SDS011;41802;51.564;-1.838;2022-07-03T13:25:35;10.98;;;4.57;;
55879;SDS011;41802;51.564;-1.838;2022-07-03T13:28:04;5.32;;;3.95;;
55879;SDS011;41802;51.564;-1.838;2022-07-03T13:30:32;8.43;;;4.13;;
55879;SDS011;41802;51.564;-1.838;2022-07-03T13:32:59;9.10;;;4.05;;
55879;SDS011;41802;51.564;-1.838;2022-07-03T13:35:26;7.82;;;4.03;;
55879;SDS011;41802;51.564;-1.838;2022-07-03T13:37:52;9.82;;;4.00;;
55879;SDS011;41802;51.564;-1.838;2022-07-03T13:40:19;8.93;;;4.13;;
55879;SDS011;41802;51.564;-1.838;2022-07-03T13:42:45;8.43;;;4.20;;
55879;SDS011;41802;51.564;-1.838;2022-07-03T13:45:12;6.63;;;4.10;;
55879;SDS011;41802;51.564;-1.838;2022-07-03T13:47:40;7.97;;;3.88;;
55879;SDS011;41802;51.564;-1.838;2022-07-03T13:50:07;5.13;;;3.60;;
55879;SDS011;41802;51.564;-1.838;2022-07-03T13:52:33;8.82;;;2.97;;
55879;SDS011;41802;51.564;-1.838;2022-07-03T13:55:00;5.97;;;2.58;;
55879;SDS011;41802;51.564;-1.838;2022-07-03T13:57:27;3.60;;;2.50;;
55879;SDS011;41802;51.564;-1.838;2022-07-03T13:59:54;5.20;;;2.80;;
55879;SDS011;41802;51.564;-1.838;2022-07-03T14:02:20;3.60;;;2.00;;
55879;SDS011;41802;51.564;-1.838;2022-07-03T14:04:48;3.53;;;2.13;;
55879;SDS011;41802;51.564;-1.838;2022-07-03T14:07:15;5.15;;;1.95;;
55879;SDS011;41802;51.564;-1.838;2022-07-03T14:09:41;2.72;;;1.45;;
55879;SDS011;41802;51.564;-1.838;2022-07-03T14:12:08;3.28;;;1.50;;
55879;SDS011;41802;51.564;-1.838;2022-07-03T14:14:34;2.97;;;1.70;;
55879;SDS011;41802;51.564;-1.838;2022-07-03T14:17:01;3.58;;;1.73;;
55879;SDS011;41802;51.564;-1.838;2022-07-03T14:19:27;2.33;;;1.25;;
55879;SDS011;41802;51.564;-1.838;2022-07-03T14:21:56;1.63;;;1.05;;
55879;SDS011;41802;51.564;-1.838;2022-07-03T14:24:25;1.80;;;1.33;;
55879;SDS011;41802;51.564;-1.838;2022-07-03T14:26:52;1.10;;;0.80;;
55879;SDS011;41802;51.564;-1.838;2022-07-03T14:29:36;0.88;;;0.80;;
55879;SDS011;41802;51.564;-1.838;2022-07-03T14:32:20;4.80;;;1.60;;
55879;SDS011;41802;51.564;-1.838;2022-07-03T14:34:56;4.65;;;0.90;;
55879;SDS011;41802;51.564;-1.838;2022-07-03T14:37:24;2.17;;;1.00;;
55879;SDS011;41802;51.564;-1.838;2022-07-03T14:39:51;3.13;;;0.90;;
55879;SDS011;41802;51.564;-1.838;2022-07-03T14:42:17;2.25;;;1.00;;
55879;SDS011;41802;51.564;-1.838;2022-07-03T14:44:44;1.85;;;1.02;;
55879;SDS011;41802;51.564;-1.838;2022-07-03T14:47:11;2.38;;;0.85;;
55879;SDS011;41802;51.564;-1.838;2022-07-03T14:49:37;2.60;;;0.77;;
55879;SDS011;41802;51.564;-1.838;2022-07-03T14:52:04;2.63;;;0.93;;
55879;SDS011;41802;51.564;-1.838;2022-07-03T14:54:33;1.30;;;0.85;;
55879;SDS011;41802;51.564;-1.838;2022-07-03T14:57:00;4.47;;;0.70;;
55879;SDS011;41802;51.564;-1.838;2022-07-03T14:59:30;2.28;;;1.27;;
55879;SDS011;41802;51.564;-1.838;2022-07-03T15:02:00;1.35;;;0.50;;